sensor_id;sensor_type;location;lat;lon;timestamp;P1;durP1;ratioP1;P2;durP2;ratioP2
21761;SDS011;11203;50.870;20.682;2023-01-09T00:00:41;146.70;;;61.42;;
21761;SDS011;11203;50.870;20.682;2023-01-09T00:03:22;132.43;;;59.13;;
21761;SDS011;11203;50.870;20.682;2023-01-09T00:05:48;127.28;;;58.85;;
21761;SDS011;11203;50.870;20.682;2023-01-09T00:08:14;122.93;;;55.42;;
21761;SDS011;11203;50.870;20.682;2023-01-09T00:10:41;109.97;;;52.83;;
21761;SDS011;11203;50.870;20.682;2023-01-09T00:13:09;123.55;;;60.72;;
21761;SDS011;11203;50.870;20.682;2023-01-09T00:15:37;105.95;;;52.65;;
21761;SDS011;11203;50.870;20.682;2023-01-09T00:18:05;105.43;;;53.67;;
21761;SDS011;11203;50.870;20.682;2023-01-09T00:20:32;109.68;;;54.58;;
21761;SDS011;11203;50.870;20.682;2023-01-09T00:22:58;103.68;;;55.47;;
21761;SDS011;11203;50.870;20.682;2023-01-09T00:25:24;102.60;;;53.58;;
21761;SDS011;11203;50.870;20.682;2023-01-09T00:27:50;119.63;;;62.58;;
21761;SDS011;11203;50.870;20.682;2023-01-09T00:30:17;116.63;;;65.38;;
21761;SDS011;11203;50.870;20.682;2023-01-09T00:32:42;101.30;;;53.85;;
21761;SDS011;11203;50.870;20.682;2023-01-09T00:35:10;101.53;;;54.60;;
21761;SDS011;11203;50.870;20.682;2023-01-09T00:37:40;99.10;;;51.85;;
21761;SDS011;11203;50.870;20.682;2023-01-09T00:40:06;94.55;;;53.28;;
21761;SDS011;11203;50.870;20.682;2023-01-09T00:42:33;91.90;;;49.00;;
21761;SDS011;11203;50.870;20.682;2023-01-09T00:45:02;92.75;;;51.90;;
21761;SDS011;11203;50.870;20.682;2023-01-09T00:47:36;96.53;;;51.25;;
21761;SDS011;11203;50.870;20.682;2023-01-09T00:50:09;91.82;;;53.17;;
21761;SDS011;11203;50.870;20.682;2023-01-09T00:52:43;90.53;;;49.17;;
21761;SDS011;11203;50.870;20.682;2023-01-09T00:55:10;94.22;;;50.30;;
21761;SDS011;11203;50.870;20.682;2023-01-09T00:57:38;95.72;;;52.30;;
21761;SDS011;11203;50.870;20.682;2023-01-09T01:00:05;89.40;;;50.33;;
21761;SDS011;11203;50.870;20.682;2023-01-09T01:02:32;90.28;;;52.67;;
21761;SDS011;11203;50.870;20.682;2023-01-09T01:04:59;101.47;;;61.78;;
21761;SDS011;11203;50.870;20.682;2023-01-09T01:07:43;90.28;;;52.53;;
21761;SDS011;11203;50.870;20.682;2023-01-09T01:10:14;88.82;;;50.05;;
21761;SDS011;11203;50.870;20.682;2023-01-09T01:12:47;102.05;;;61.22;;
21761;SDS011;11203;50.870;20.682;2023-01-09T01:15:16;106.80;;;64.28;;
21761;SDS011;11203;50.870;20.682;2023-01-09T01:17:43;100.80;;;56.88;;
21761;SDS011;11203;50.870;20.682;2023-01-09T01:20:11;127.15;;;66.32;;
21761;SDS011;11203;50.870;20.682;2023-01-09T01:22:40;83.95;;;49.05;;
21761;SDS011;11203;50.870;20.682;2023-01-09T01:25:07;112.07;;;57.47;;
21761;SDS011;11203;50.870;20.682;2023-01-09T01:27:35;96.10;;;54.13;;
21761;SDS011;11203;50.870;20.682;2023-01-09T01:30:01;102.30;;;56.95;;
21761;SDS011;11203;50.870;20.682;2023-01-09T01:32:27;87.43;;;52.13;;
21761;SDS011;11203;50.870;20.682;2023-01-09T01:34:54;95.38;;;54.58;;
21761;SDS011;11203;50.870;20.682;2023-01-09T01:37:19;88.93;;;50.70;;
21761;SDS011;11203;50.870;20.682;2023-01-09T01:39:47;94.75;;;52.15;;
21761;SDS011;11203;50.870;20.682;2023-01-09T01:42:13;75.68;;;45.60;;
21761;SDS011;11203;50.870;20.682;2023-01-09T01:50:17;72.43;;;45.00;;
21761;SDS011;11203;50.870;20.682;2023-01-09T01:55:39;76.63;;;47.67;;
21761;SDS011;11203;50.870;20.682;2023-01-09T01:58:27;77.15;;;47.45;;
21761;SDS011;11203;50.870;20.682;2023-01-09T02:00:55;115.68;;;63.17;;
21761;SDS011;11203;50.870;20.682;2023-01-09T02:03:22;89.57;;;53.78;;
21761;SDS011;11203;50.870;20.682;2023-01-09T02:05:52;87.25;;;52.38;;
21761;SDS011;11203;50.870;20.682;2023-01-09T02:08:18;103.68;;;58.90;;
21761;SDS011;11203;50.870;20.682;2023-01-09T02:10:44;90.25;;;53.75;;
21761;SDS011;11203;50.870;20.682;2023-01-09T02:13:11;105.53;;;55.85;;
21761;SDS011;11203;50.870;20.682;2023-01-09T02:15:42;100.05;;;53.97;;
21761;SDS011;11203;50.870;20.682;2023-01-09T02:18:42;119.85;;;57.80;;
21761;SDS011;11203;50.870;20.682;2023-01-09T02:24:07;62.45;;;41.88;;
21761;SDS011;11203;50.870;20.682;2023-01-09T02:27:02;77.43;;;48.17;;
21761;SDS011;11203;50.870;20.682;2023-01-09T02:35:52;106.70;;;79.00;;
21761;SDS011;11203;50.870;20.682;2023-01-09T02:38:40;79.05;;;56.00;;
21761;SDS011;11203;50.870;20.682;2023-01-09T02:46:40;67.45;;;43.33;;
21761;SDS011;11203;50.870;20.682;2023-01-09T02:49:06;59.00;;;39.13;;
21761;SDS011;11203;50.870;20.682;2023-01-09T02:51:37;61.55;;;39.60;;
21761;SDS011;11203;50.870;20.682;2023-01-09T02:57:28;58.33;;;39.65;;
21761;SDS011;11203;50.870;20.682;2023-01-09T03:03:11;59.13;;;39.58;;
21761;SDS011;11203;50.870;20.682;2023-01-09T03:06:31;61.05;;;43.35;;
21761;SDS011;11203;50.870;20.682;2023-01-09T03:09:11;62.80;;;45.05;;
21761;SDS011;11203;50.870;20.682;2023-01-09T03:11:51;59.42;;;42.10;;
21761;SDS011;11203;50.870;20.682;2023-01-09T03:14:29;67.75;;;46.13;;
21761;SDS011;11203;50.870;20.682;2023-01-09T03:16:59;62.28;;;42.70;;
21761;SDS011;11203;50.870;20.682;2023-01-09T03:19:30;65.38;;;44.55;;
21761;SDS011;11203;50.870;20.682;2023-01-09T03:21:58;73.53;;;50.22;;
21761;SDS011;11203;50.870;20.682;2023-01-09T03:24:24;72.43;;;47.90;;
21761;SDS011;11203;50.870;20.682;2023-01-09T03:26:51;73.65;;;51.47;;
21761;SDS011;11203;50.870;20.682;2023-01-09T03:29:19;65.78;;;44.92;;
21761;SDS011;11203;50.870;20.682;2023-01-09T03:31:46;72.95;;;52.03;;
21761;SDS011;11203;50.870;20.682;2023-01-09T03:34:12;57.00;;;39.35;;
21761;SDS011;11203;50.870;20.682;2023-01-09T03:36:39;85.47;;;60.55;;
21761;SDS011;11203;50.870;20.682;2023-01-09T03:39:04;67.40;;;49.00;;
21761;SDS011;11203;50.870;20.682;2023-01-09T03:41:31;71.38;;;49.05;;
21761;SDS011;11203;50.870;20.682;2023-01-09T03:43:57;65.30;;;44.33;;
21761;SDS011;11203;50.870;20.682;2023-01-09T03:46:23;58.38;;;40.13;;
21761;SDS011;11203;50.870;20.682;2023-01-09T03:48:49;55.60;;;39.28;;
21761;SDS011;11203;50.870;20.682;2023-01-09T03:51:15;62.90;;;45.83;;
21761;SDS011;11203;50.870;20.682;2023-01-09T03:53:41;61.58;;;41.03;;
21761;SDS011;11203;50.870;20.682;2023-01-09T03:56:07;57.70;;;37.63;;
21761;SDS011;11203;50.870;20.682;2023-01-09T03:58:33;54.53;;;37.00;;
21761;SDS011;11203;50.870;20.682;2023-01-09T04:01:01;62.45;;;39.92;;
21761;SDS011;11203;50.870;20.682;2023-01-09T04:03:29;58.83;;;38.70;;
21761;SDS011;11203;50.870;20.682;2023-01-09T04:05:55;65.55;;;40.40;;
21761;SDS011;11203;50.870;20.682;2023-01-09T04:08:21;60.30;;;41.00;;
21761;SDS011;11203;50.870;20.682;2023-01-09T04:10:48;63.00;;;40.95;;
21761;SDS011;11203;50.870;20.682;2023-01-09T04:13:15;63.40;;;40.90;;
21761;SDS011;11203;50.870;20.682;2023-01-09T04:15:41;62.47;;;38.65;;
21761;SDS011;11203;50.870;20.682;2023-01-09T04:18:07;67.22;;;41.25;;
21761;SDS011;11203;50.870;20.682;2023-01-09T04:20:33;63.38;;;40.63;;
21761;SDS011;11203;50.870;20.682;2023-01-09T04:23:00;50.42;;;33.53;;
21761;SDS011;11203;50.870;20.682;2023-01-09T04:25:26;79.63;;;50.33;;
21761;SDS011;11203;50.870;20.682;2023-01-09T04:27:52;70.93;;;46.17;;
21761;SDS011;11203;50.870;20.682;2023-01-09T04:30:18;69.22;;;45.22;;
21761;SDS011;11203;50.870;20.682;2023-01-09T04:32:44;71.97;;;45.63;;
21761;SDS011;11203;50.870;20.682;2023-01-09T04:35:11;64.28;;;39.80;;
21761;SDS011;11203;50.870;20.682;2023-01-09T04:37:37;61.17;;;38.45;;
21761;SDS011;11203;50.870;20.682;2023-01-09T04:40:03;78.82;;;45.47;;
21761;SDS011;11203;50.870;20.682;2023-01-09T04:42:40;75.95;;;45.40;;
21761;SDS011;11203;50.870;20.682;2023-01-09T04:45:07;76.80;;;42.90;;
21761;SDS011;11203;50.870;20.682;2023-01-09T04:47:35;78.53;;;45.35;;
21761;SDS011;11203;50.870;20.682;2023-01-09T04:50:02;74.90;;;48.60;;
21761;SDS011;11203;50.870;20.682;2023-01-09T04:52:29;69.32;;;43.13;;
21761;SDS011;11203;50.870;20.682;2023-01-09T04:54:55;72.85;;;43.78;;
21761;SDS011;11203;50.870;20.682;2023-01-09T04:57:21;62.38;;;39.25;;
21761;SDS011;11203;50.870;20.682;2023-01-09T04:59:47;63.17;;;41.28;;
21761;SDS011;11203;50.870;20.682;2023-01-09T05:02:14;77.47;;;46.13;;
21761;SDS011;11203;50.870;20.682;2023-01-09T05:04:41;73.80;;;45.08;;
21761;SDS011;11203;50.870;20.682;2023-01-09T05:07:06;76.20;;;45.50;;
21761;SDS011;11203;50.870;20.682;2023-01-09T05:09:33;83.43;;;50.20;;
21761;SDS011;11203;50.870;20.682;2023-01-09T05:12:00;98.88;;;57.88;;
21761;SDS011;11203;50.870;20.682;2023-01-09T05:14:26;80.90;;;50.90;;
21761;SDS011;11203;50.870;20.682;2023-01-09T05:16:52;78.45;;;47.15;;
21761;SDS011;11203;50.870;20.682;2023-01-09T05:19:19;75.90;;;44.92;;
21761;SDS011;11203;50.870;20.682;2023-01-09T05:21:45;95.10;;;58.13;;
21761;SDS011;11203;50.870;20.682;2023-01-09T05:24:11;83.13;;;51.40;;
21761;SDS011;11203;50.870;20.682;2023-01-09T05:26:37;75.05;;;43.45;;
21761;SDS011;11203;50.870;20.682;2023-01-09T05:29:04;77.50;;;45.03;;
21761;SDS011;11203;50.870;20.682;2023-01-09T05:31:30;78.85;;;45.25;;
21761;SDS011;11203;50.870;20.682;2023-01-09T05:33:56;79.72;;;44.42;;
21761;SDS011;11203;50.870;20.682;2023-01-09T05:36:24;84.10;;;50.25;;
21761;SDS011;11203;50.870;20.682;2023-01-09T05:38:51;82.20;;;47.03;;
21761;SDS011;11203;50.870;20.682;2023-01-09T05:41:17;81.00;;;46.85;;
21761;SDS011;11203;50.870;20.682;2023-01-09T05:43:43;78.97;;;46.17;;
21761;SDS011;11203;50.870;20.682;2023-01-09T05:46:09;92.95;;;53.45;;
21761;SDS011;11203;50.870;20.682;2023-01-09T05:48:35;107.60;;;60.67;;
21761;SDS011;11203;50.870;20.682;2023-01-09T05:51:02;114.28;;;66.70;;
21761;SDS011;11203;50.870;20.682;2023-01-09T05:53:28;125.07;;;69.07;;
21761;SDS011;11203;50.870;20.682;2023-01-09T05:55:54;93.18;;;50.70;;
21761;SDS011;11203;50.870;20.682;2023-01-09T05:58:20;106.30;;;56.25;;
21761;SDS011;11203;50.870;20.682;2023-01-09T06:00:46;108.10;;;57.47;;
21761;SDS011;11203;50.870;20.682;2023-01-09T06:03:13;99.80;;;54.22;;
21761;SDS011;11203;50.870;20.682;2023-01-09T06:05:39;112.57;;;58.10;;
21761;SDS011;11203;50.870;20.682;2023-01-09T06:08:05;117.97;;;57.55;;
21761;SDS011;11203;50.870;20.682;2023-01-09T06:10:31;101.00;;;52.55;;
21761;SDS011;11203;50.870;20.682;2023-01-09T06:12:58;88.80;;;49.25;;
21761;SDS011;11203;50.870;20.682;2023-01-09T06:15:23;101.30;;;54.15;;
21761;SDS011;11203;50.870;20.682;2023-01-09T06:17:50;107.22;;;57.28;;
21761;SDS011;11203;50.870;20.682;2023-01-09T06:20:16;116.82;;;62.92;;
21761;SDS011;11203;50.870;20.682;2023-01-09T06:22:42;98.32;;;52.17;;
21761;SDS011;11203;50.870;20.682;2023-01-09T06:25:10;103.65;;;53.95;;
21761;SDS011;11203;50.870;20.682;2023-01-09T06:27:37;99.70;;;52.55;;
21761;SDS011;11203;50.870;20.682;2023-01-09T06:30:03;108.22;;;56.15;;
21761;SDS011;11203;50.870;20.682;2023-01-09T06:32:31;118.78;;;58.13;;
21761;SDS011;11203;50.870;20.682;2023-01-09T06:34:56;162.35;;;77.95;;
21761;SDS011;11203;50.870;20.682;2023-01-09T06:37:23;133.77;;;66.95;;
21761;SDS011;11203;50.870;20.682;2023-01-09T06:39:49;114.97;;;58.65;;
21761;SDS011;11203;50.870;20.682;2023-01-09T06:42:15;126.20;;;62.30;;
21761;SDS011;11203;50.870;20.682;2023-01-09T06:44:41;183.65;;;88.30;;
21761;SDS011;11203;50.870;20.682;2023-01-09T06:47:07;194.23;;;104.45;;
21761;SDS011;11203;50.870;20.682;2023-01-09T06:49:33;121.13;;;62.88;;
21761;SDS011;11203;50.870;20.682;2023-01-09T06:51:59;120.03;;;62.70;;
21761;SDS011;11203;50.870;20.682;2023-01-09T06:54:29;141.98;;;73.03;;
21761;SDS011;11203;50.870;20.682;2023-01-09T06:56:56;97.28;;;53.75;;
21761;SDS011;11203;50.870;20.682;2023-01-09T06:59:22;106.35;;;56.47;;
21761;SDS011;11203;50.870;20.682;2023-01-09T07:01:48;107.18;;;55.35;;
21761;SDS011;11203;50.870;20.682;2023-01-09T07:04:14;93.88;;;52.60;;
21761;SDS011;11203;50.870;20.682;2023-01-09T07:06:42;104.72;;;54.05;;
21761;SDS011;11203;50.870;20.682;2023-01-09T07:09:08;108.90;;;57.50;;
21761;SDS011;11203;50.870;20.682;2023-01-09T07:11:38;108.35;;;60.70;;
21761;SDS011;11203;50.870;20.682;2023-01-09T07:14:04;113.15;;;63.65;;
21761;SDS011;11203;50.870;20.682;2023-01-09T07:16:31;110.35;;;59.35;;
21761;SDS011;11203;50.870;20.682;2023-01-09T07:18:58;102.65;;;56.00;;
21761;SDS011;11203;50.870;20.682;2023-01-09T07:21:24;93.43;;;53.30;;
21761;SDS011;11203;50.870;20.682;2023-01-09T07:23:50;102.40;;;57.95;;
21761;SDS011;11203;50.870;20.682;2023-01-09T07:26:16;105.13;;;60.22;;
21761;SDS011;11203;50.870;20.682;2023-01-09T07:28:42;89.43;;;52.35;;
21761;SDS011;11203;50.870;20.682;2023-01-09T07:31:08;86.88;;;49.20;;
21761;SDS011;11203;50.870;20.682;2023-01-09T07:33:34;82.43;;;49.88;;
21761;SDS011;11203;50.870;20.682;2023-01-09T07:36:01;82.13;;;48.25;;
21761;SDS011;11203;50.870;20.682;2023-01-09T07:38:26;81.45;;;49.75;;
21761;SDS011;11203;50.870;20.682;2023-01-09T07:40:53;80.88;;;49.88;;
21761;SDS011;11203;50.870;20.682;2023-01-09T07:43:19;77.18;;;48.67;;
21761;SDS011;11203;50.870;20.682;2023-01-09T07:45:45;67.35;;;44.67;;
21761;SDS011;11203;50.870;20.682;2023-01-09T07:48:11;74.45;;;47.25;;
21761;SDS011;11203;50.870;20.682;2023-01-09T07:50:37;76.55;;;47.88;;
21761;SDS011;11203;50.870;20.682;2023-01-09T07:53:03;76.65;;;49.58;;
21761;SDS011;11203;50.870;20.682;2023-01-09T07:55:29;86.68;;;58.55;;
21761;SDS011;11203;50.870;20.682;2023-01-09T07:57:55;110.53;;;63.90;;
21761;SDS011;11203;50.870;20.682;2023-01-09T08:00:22;189.20;;;90.50;;
21761;SDS011;11203;50.870;20.682;2023-01-09T08:02:51;949.55;;;466.48;;
21761;SDS011;11203;50.870;20.682;2023-01-09T08:05:18;154.93;;;74.32;;
21761;SDS011;11203;50.870;20.682;2023-01-09T08:07:45;1176.18;;;428.50;;
21761;SDS011;11203;50.870;20.682;2023-01-09T08:10:11;684.83;;;255.75;;
21761;SDS011;11203;50.870;20.682;2023-01-09T08:12:41;944.25;;;407.40;;
21761;SDS011;11203;50.870;20.682;2023-01-09T08:15:07;285.08;;;119.15;;
21761;SDS011;11203;50.870;20.682;2023-01-09T08:17:34;176.45;;;85.00;;
21761;SDS011;11203;50.870;20.682;2023-01-09T08:20:01;443.05;;;192.90;;
21761;SDS011;11203;50.870;20.682;2023-01-09T08:22:28;472.50;;;193.77;;
21761;SDS011;11203;50.870;20.682;2023-01-09T08:24:54;591.17;;;237.55;;
21761;SDS011;11203;50.870;20.682;2023-01-09T08:27:20;712.55;;;256.73;;
21761;SDS011;11203;50.870;20.682;2023-01-09T08:29:46;255.73;;;136.68;;
21761;SDS011;11203;50.870;20.682;2023-01-09T08:32:12;181.88;;;133.68;;
21761;SDS011;11203;50.870;20.682;2023-01-09T08:34:38;68.28;;;50.70;;
21761;SDS011;11203;50.870;20.682;2023-01-09T08:37:04;66.72;;;49.10;;
21761;SDS011;11203;50.870;20.682;2023-01-09T08:39:30;60.78;;;46.95;;
21761;SDS011;11203;50.870;20.682;2023-01-09T08:41:57;97.78;;;77.40;;
21761;SDS011;11203;50.870;20.682;2023-01-09T08:44:41;259.73;;;173.25;;
21761;SDS011;11203;50.870;20.682;2023-01-09T08:47:26;1021.60;;;416.95;;
21761;SDS011;11203;50.870;20.682;2023-01-09T08:49:57;809.63;;;295.20;;
21761;SDS011;11203;50.870;20.682;2023-01-09T08:52:23;896.20;;;287.48;;
21761;SDS011;11203;50.870;20.682;2023-01-09T08:54:49;1999.90;;;625.28;;
21761;SDS011;11203;50.870;20.682;2023-01-09T08:57:15;692.75;;;253.98;;
21761;SDS011;11203;50.870;20.682;2023-01-09T08:59:41;596.50;;;217.98;;
21761;SDS011;11203;50.870;20.682;2023-01-09T09:02:08;462.77;;;232.07;;
21761;SDS011;11203;50.870;20.682;2023-01-09T09:04:35;212.65;;;116.38;;
21761;SDS011;11203;50.870;20.682;2023-01-09T09:07:01;105.05;;;80.13;;
21761;SDS011;11203;50.870;20.682;2023-01-09T09:09:27;57.58;;;39.72;;
21761;SDS011;11203;50.870;20.682;2023-01-09T09:11:53;162.88;;;57.30;;
21761;SDS011;11203;50.870;20.682;2023-01-09T09:14:19;158.52;;;82.05;;
21761;SDS011;11203;50.870;20.682;2023-01-09T09:17:04;226.15;;;133.70;;
21761;SDS011;11203;50.870;20.682;2023-01-09T09:19:30;103.07;;;70.97;;
21761;SDS011;11203;50.870;20.682;2023-01-09T09:21:56;79.43;;;57.42;;
21761;SDS011;11203;50.870;20.682;2023-01-09T09:24:22;62.65;;;45.88;;
21761;SDS011;11203;50.870;20.682;2023-01-09T09:26:48;52.72;;;37.50;;
21761;SDS011;11203;50.870;20.682;2023-01-09T09:29:14;52.47;;;39.00;;
21761;SDS011;11203;50.870;20.682;2023-01-09T09:31:40;522.33;;;265.83;;
21761;SDS011;11203;50.870;20.682;2023-01-09T09:34:07;1109.15;;;400.13;;
21761;SDS011;11203;50.870;20.682;2023-01-09T09:36:34;1300.68;;;455.50;;
21761;SDS011;11203;50.870;20.682;2023-01-09T09:39:00;456.65;;;152.10;;
21761;SDS011;11203;50.870;20.682;2023-01-09T09:47:57;85.88;;;60.67;;
21761;SDS011;11203;50.870;20.682;2023-01-09T09:53:39;197.15;;;100.20;;
21761;SDS011;11203;50.870;20.682;2023-01-09T09:56:14;77.68;;;48.17;;
21761;SDS011;11203;50.870;20.682;2023-01-09T09:58:56;49.28;;;34.45;;
21761;SDS011;11203;50.870;20.682;2023-01-09T10:01:47;96.70;;;52.15;;
21761;SDS011;11203;50.870;20.682;2023-01-09T10:04:28;95.15;;;64.88;;
21761;SDS011;11203;50.870;20.682;2023-01-09T10:06:58;96.35;;;60.42;;
21761;SDS011;11203;50.870;20.682;2023-01-09T10:12:29;179.18;;;98.07;;
21761;SDS011;11203;50.870;20.682;2023-01-09T10:14:57;115.97;;;64.47;;
21761;SDS011;11203;50.870;20.682;2023-01-09T10:20:29;67.57;;;47.35;;
21761;SDS011;11203;50.870;20.682;2023-01-09T10:23:07;73.22;;;43.13;;
21761;SDS011;11203;50.870;20.682;2023-01-09T10:25:51;96.55;;;43.80;;
21761;SDS011;11203;50.870;20.682;2023-01-09T10:37:15;61.80;;;35.08;;
21761;SDS011;11203;50.870;20.682;2023-01-09T10:40:04;51.50;;;37.72;;
21761;SDS011;11203;50.870;20.682;2023-01-09T10:43:04;52.05;;;35.88;;
21761;SDS011;11203;50.870;20.682;2023-01-09T10:45:42;50.33;;;34.20;;
21761;SDS011;11203;50.870;20.682;2023-01-09T10:48:23;65.95;;;50.33;;
21761;SDS011;11203;50.870;20.682;2023-01-09T10:50:56;47.28;;;32.85;;
21761;SDS011;11203;50.870;20.682;2023-01-09T10:53:34;98.43;;;64.40;;
21761;SDS011;11203;50.870;20.682;2023-01-09T10:56:07;81.63;;;44.40;;
21761;SDS011;11203;50.870;20.682;2023-01-09T10:58:50;133.25;;;76.68;;
21761;SDS011;11203;50.870;20.682;2023-01-09T11:01:21;45.90;;;32.90;;
21761;SDS011;11203;50.870;20.682;2023-01-09T11:03:51;75.20;;;45.17;;
21761;SDS011;11203;50.870;20.682;2023-01-09T11:06:20;66.03;;;49.20;;
21761;SDS011;11203;50.870;20.682;2023-01-09T11:08:52;70.50;;;49.88;;
21761;SDS011;11203;50.870;20.682;2023-01-09T11:11:35;64.40;;;39.35;;
21761;SDS011;11203;50.870;20.682;2023-01-09T11:16:59;107.00;;;61.28;;
21761;SDS011;11203;50.870;20.682;2023-01-09T11:19:29;251.93;;;126.65;;
21761;SDS011;11203;50.870;20.682;2023-01-09T11:22:16;140.60;;;57.17;;
21761;SDS011;11203;50.870;20.682;2023-01-09T11:24:43;498.45;;;124.57;;
21761;SDS011;11203;50.870;20.682;2023-01-09T11:29:39;68.85;;;38.80;;
21761;SDS011;11203;50.870;20.682;2023-01-09T11:32:15;64.35;;;45.08;;
21761;SDS011;11203;50.870;20.682;2023-01-09T11:34:47;38.33;;;31.20;;
21761;SDS011;11203;50.870;20.682;2023-01-09T11:37:17;54.15;;;43.88;;
21761;SDS011;11203;50.870;20.682;2023-01-09T11:39:51;41.53;;;30.88;;
21761;SDS011;11203;50.870;20.682;2023-01-09T11:42:20;60.95;;;42.85;;
21761;SDS011;11203;50.870;20.682;2023-01-09T11:45:17;38.10;;;31.02;;
21761;SDS011;11203;50.870;20.682;2023-01-09T11:47:48;69.13;;;60.33;;
21761;SDS011;11203;50.870;20.682;2023-01-09T11:50:18;55.05;;;47.83;;
21761;SDS011;11203;50.870;20.682;2023-01-09T11:53:15;44.50;;;31.50;;
21761;SDS011;11203;50.870;20.682;2023-01-09T11:55:42;38.58;;;27.85;;
21761;SDS011;11203;50.870;20.682;2023-01-09T11:58:17;36.97;;;27.00;;
21761;SDS011;11203;50.870;20.682;2023-01-09T12:00:50;29.20;;;21.13;;
21761;SDS011;11203;50.870;20.682;2023-01-09T12:09:20;31.58;;;23.60;;
21761;SDS011;11203;50.870;20.682;2023-01-09T12:18:05;53.17;;;37.40;;
21761;SDS011;11203;50.870;20.682;2023-01-09T12:35:54;45.15;;;29.13;;
21761;SDS011;11203;50.870;20.682;2023-01-09T12:38:47;34.95;;;24.63;;
21761;SDS011;11203;50.870;20.682;2023-01-09T12:44:48;42.58;;;32.25;;
21761;SDS011;11203;50.870;20.682;2023-01-09T12:47:44;21.67;;;17.33;;
21761;SDS011;11203;50.870;20.682;2023-01-09T12:53:18;25.00;;;20.70;;
21761;SDS011;11203;50.870;20.682;2023-01-09T12:58:52;26.70;;;22.67;;
21761;SDS011;11203;50.870;20.682;2023-01-09T13:01:33;32.63;;;23.45;;
21761;SDS011;11203;50.870;20.682;2023-01-09T13:04:10;36.95;;;27.92;;
21761;SDS011;11203;50.870;20.682;2023-01-09T13:06:46;31.27;;;24.42;;
21761;SDS011;11203;50.870;20.682;2023-01-09T13:12:11;35.88;;;26.88;;
21761;SDS011;11203;50.870;20.682;2023-01-09T13:18:06;31.60;;;24.80;;
21761;SDS011;11203;50.870;20.682;2023-01-09T13:20:51;25.90;;;21.02;;
21761;SDS011;11203;50.870;20.682;2023-01-09T13:23:23;28.92;;;23.45;;
21761;SDS011;11203;50.870;20.682;2023-01-09T13:29:46;34.30;;;27.65;;
21761;SDS011;11203;50.870;20.682;2023-01-09T13:34:45;79.60;;;52.83;;
21761;SDS011;11203;50.870;20.682;2023-01-09T13:37:20;87.72;;;65.35;;
21761;SDS011;11203;50.870;20.682;2023-01-09T13:42:28;90.70;;;65.60;;
21761;SDS011;11203;50.870;20.682;2023-01-09T13:50:42;46.85;;;39.20;;
21761;SDS011;11203;50.870;20.682;2023-01-09T13:58:28;105.43;;;44.67;;
21761;SDS011;11203;50.870;20.682;2023-01-09T14:06:33;91.88;;;51.67;;
21761;SDS011;11203;50.870;20.682;2023-01-09T14:09:19;63.63;;;44.13;;
21761;SDS011;11203;50.870;20.682;2023-01-09T14:11:47;51.85;;;46.10;;
21761;SDS011;11203;50.870;20.682;2023-01-09T14:14:29;111.82;;;99.68;;
21761;SDS011;11203;50.870;20.682;2023-01-09T14:16:58;35.40;;;29.45;;
21761;SDS011;11203;50.870;20.682;2023-01-09T14:19:31;32.20;;;24.92;;
21761;SDS011;11203;50.870;20.682;2023-01-09T14:22:03;32.35;;;26.25;;
21761;SDS011;11203;50.870;20.682;2023-01-09T14:38:57;58.45;;;40.97;;
21761;SDS011;11203;50.870;20.682;2023-01-09T14:44:29;56.58;;;37.40;;
21761;SDS011;11203;50.870;20.682;2023-01-09T14:52:39;147.55;;;96.25;;
21761;SDS011;11203;50.870;20.682;2023-01-09T14:55:16;85.72;;;61.92;;
21761;SDS011;11203;50.870;20.682;2023-01-09T14:57:52;171.02;;;107.28;;
21761;SDS011;11203;50.870;20.682;2023-01-09T15:00:19;162.18;;;103.43;;
21761;SDS011;11203;50.870;20.682;2023-01-09T15:02:47;365.17;;;220.13;;
21761;SDS011;11203;50.870;20.682;2023-01-09T15:05:17;408.27;;;242.38;;
21761;SDS011;11203;50.870;20.682;2023-01-09T15:07:51;359.35;;;195.65;;
21761;SDS011;11203;50.870;20.682;2023-01-09T15:10:23;351.17;;;195.13;;
21761;SDS011;11203;50.870;20.682;2023-01-09T15:12:54;203.30;;;124.70;;
21761;SDS011;11203;50.870;20.682;2023-01-09T15:15:23;317.67;;;191.90;;
21761;SDS011;11203;50.870;20.682;2023-01-09T15:17:55;156.98;;;93.07;;
21761;SDS011;11203;50.870;20.682;2023-01-09T15:20:32;121.88;;;77.45;;
21761;SDS011;11203;50.870;20.682;2023-01-09T15:23:00;298.60;;;175.23;;
21761;SDS011;11203;50.870;20.682;2023-01-09T15:25:31;172.45;;;104.80;;
21761;SDS011;11203;50.870;20.682;2023-01-09T15:28:18;166.93;;;101.70;;
21761;SDS011;11203;50.870;20.682;2023-01-09T15:30:53;119.28;;;70.72;;
21761;SDS011;11203;50.870;20.682;2023-01-09T15:33:37;124.82;;;68.50;;
21761;SDS011;11203;50.870;20.682;2023-01-09T15:36:10;118.28;;;66.93;;
21761;SDS011;11203;50.870;20.682;2023-01-09T15:38:44;123.82;;;73.18;;
21761;SDS011;11203;50.870;20.682;2023-01-09T15:41:13;181.35;;;103.75;;
21761;SDS011;11203;50.870;20.682;2023-01-09T15:44:02;218.00;;;108.40;;
21761;SDS011;11203;50.870;20.682;2023-01-09T15:46:30;95.35;;;60.78;;
21761;SDS011;11203;50.870;20.682;2023-01-09T15:48:57;115.97;;;72.95;;
21761;SDS011;11203;50.870;20.682;2023-01-09T15:51:24;106.80;;;69.93;;
21761;SDS011;11203;50.870;20.682;2023-01-09T15:53:51;125.10;;;76.85;;
21761;SDS011;11203;50.870;20.682;2023-01-09T15:56:22;111.35;;;74.20;;
21761;SDS011;11203;50.870;20.682;2023-01-09T15:58:58;157.68;;;89.97;;
21761;SDS011;11203;50.870;20.682;2023-01-09T16:04:09;233.25;;;120.72;;
21761;SDS011;11203;50.870;20.682;2023-01-09T16:09:15;175.43;;;116.82;;
21761;SDS011;11203;50.870;20.682;2023-01-09T16:11:52;142.02;;;87.45;;
21761;SDS011;11203;50.870;20.682;2023-01-09T16:14:30;173.25;;;97.25;;
21761;SDS011;11203;50.870;20.682;2023-01-09T16:17:03;163.65;;;99.85;;
21761;SDS011;11203;50.870;20.682;2023-01-09T16:22:23;139.35;;;86.25;;
21761;SDS011;11203;50.870;20.682;2023-01-09T16:24:56;170.25;;;98.07;;
21761;SDS011;11203;50.870;20.682;2023-01-09T16:27:30;159.77;;;96.28;;
21761;SDS011;11203;50.870;20.682;2023-01-09T16:30:05;148.40;;;82.53;;
21761;SDS011;11203;50.870;20.682;2023-01-09T16:32:44;106.35;;;67.25;;
21761;SDS011;11203;50.870;20.682;2023-01-09T16:35:22;112.47;;;74.00;;
21761;SDS011;11203;50.870;20.682;2023-01-09T16:37:53;117.65;;;75.85;;
21761;SDS011;11203;50.870;20.682;2023-01-09T16:40:23;102.15;;;65.30;;
21761;SDS011;11203;50.870;20.682;2023-01-09T16:42:51;102.15;;;66.80;;
21761;SDS011;11203;50.870;20.682;2023-01-09T16:48:10;79.43;;;52.92;;
21761;SDS011;11203;50.870;20.682;2023-01-09T16:50:46;88.18;;;58.15;;
21761;SDS011;11203;50.870;20.682;2023-01-09T16:53:19;95.88;;;58.92;;
21761;SDS011;11203;50.870;20.682;2023-01-09T16:55:52;79.57;;;49.72;;
21761;SDS011;11203;50.870;20.682;2023-01-09T16:58:22;55.05;;;37.55;;
21761;SDS011;11203;50.870;20.682;2023-01-09T17:00:53;50.22;;;35.05;;